createdAt,value
2022-11-27T00:01:35.396Z,25.80
2022-11-27T00:04:03.370Z,23.20
2022-11-27T00:06:31.991Z,22.00
2022-11-27T00:09:01.025Z,22.47
2022-11-27T00:11:29.938Z,24.67
2022-11-27T00:13:57.720Z,24.20
2022-11-27T00:16:26.384Z,21.77
2022-11-27T00:18:53.820Z,24.17
2022-11-27T00:21:28.589Z,22.70
2022-11-27T00:23:57.895Z,24.43
2022-11-27T00:26:26.033Z,23.80
2022-11-27T00:28:53.176Z,24.80
2022-11-27T00:31:34.862Z,27.37
2022-11-27T00:34:05.666Z,23.65
2022-11-27T00:36:34.566Z,23.90
2022-11-27T00:39:02.778Z,25.20
2022-11-27T00:41:31.763Z,27.10
2022-11-27T00:44:01.801Z,27.10
2022-11-27T00:46:30.962Z,23.13
2022-11-27T00:49:05.196Z,25.37
2022-11-27T00:51:33.059Z,24.90
2022-11-27T00:54:00.278Z,24.63
2022-11-27T00:56:31.732Z,24.27
2022-11-27T00:58:59.286Z,23.50
2022-11-27T01:01:34.109Z,25.40
2022-11-27T01:04:03.764Z,25.03
2022-11-27T01:06:31.616Z,24.83
2022-11-27T01:08:59.802Z,26.83
2022-11-27T01:11:30.528Z,23.30
2022-11-27T01:14:07.304Z,26.10
2022-11-27T01:16:36.393Z,25.63
2022-11-27T01:19:05.455Z,24.70
2022-11-27T01:21:34.866Z,27.17
2022-11-27T01:24:03.546Z,25.87
2022-11-27T01:26:31.521Z,26.07
2022-11-27T01:28:59.956Z,24.87
2022-11-27T01:31:30.712Z,23.57
2022-11-27T01:34:07.815Z,23.87
2022-11-27T01:36:37.100Z,23.13
2022-11-27T01:39:05.466Z,23.43
2022-11-27T01:41:36.752Z,23.37
2022-11-27T01:44:24.237Z,26.30
2022-11-27T01:47:07.526Z,23.63
2022-11-27T01:49:46.327Z,22.07
2022-11-27T01:52:19.313Z,24.07
2022-11-27T01:54:48.681Z,23.00
2022-11-27T01:57:29.690Z,22.83
2022-11-27T02:00:00.938Z,23.57
2022-11-27T02:02:28.831Z,21.83
2022-11-27T02:04:56.343Z,22.00
2022-11-27T02:07:24.475Z,22.23
2022-11-27T02:09:52.212Z,21.17
2022-11-27T02:12:42.928Z,23.73
2022-11-27T02:15:57.869Z,21.83
2022-11-27T02:18:51.141Z,21.00
2022-11-27T02:21:29.392Z,20.23
2022-11-27T02:24:31.243Z,21.27
2022-11-27T02:27:05.829Z,20.83
2022-11-27T02:29:35.314Z,23.30
2022-11-27T02:32:19.990Z,20.67
2022-11-27T02:35:25.314Z,21.37
2022-11-27T02:38:03.293Z,20.43
2022-11-27T02:40:49.194Z,22.50
2022-11-27T02:43:21.718Z,20.93
2022-11-27T02:45:51.520Z,21.27
2022-11-27T02:48:31.357Z,22.80
2022-11-27T02:50:58.646Z,19.07
2022-11-27T02:53:39.327Z,22.07
2022-11-27T02:56:15.199Z,21.97
2022-11-27T02:58:47.027Z,18.30
2022-11-27T03:01:16.526Z,21.80
2022-11-27T03:03:50.310Z,23.83
2022-11-27T03:06:27.185Z,21.77
2022-11-27T03:09:11.309Z,22.97
2022-11-27T03:11:38.675Z,20.40
2022-11-27T03:14:09.792Z,21.87
2022-11-27T03:16:58.951Z,19.58
2022-11-27T03:19:44.479Z,20.00
2022-11-27T03:22:14.593Z,21.67
2022-11-27T03:24:43.421Z,22.60
2022-11-27T03:27:14.549Z,24.73
2022-11-27T03:29:54.729Z,24.15
2022-11-27T03:32:22.574Z,20.63
2022-11-27T03:37:51.466Z,21.93
2022-11-27T03:40:20.123Z,24.80
2022-11-27T03:42:47.478Z,23.87
2022-11-27T03:45:31.449Z,19.70
2022-11-27T03:48:11.861Z,22.40
2022-11-27T03:51:01.259Z,21.67
2022-11-27T03:57:14.193Z,23.10
2022-11-27T03:59:46.250Z,22.90
2022-11-27T04:02:16.298Z,25.03
2022-11-27T04:04:43.682Z,24.77
2022-11-27T04:07:17.756Z,22.77
2022-11-27T04:09:45.837Z,24.20
2022-11-27T04:12:13.023Z,24.57
2022-11-27T04:14:43.467Z,22.03
2022-11-27T04:17:11.831Z,22.63
2022-11-27T04:19:39.038Z,21.67
2022-11-27T04:22:06.441Z,24.77
2022-11-27T04:24:33.738Z,24.47
2022-11-27T04:27:01.830Z,22.07
2022-11-27T04:29:30.699Z,23.90
2022-11-27T04:31:57.954Z,23.67
2022-11-27T04:34:25.027Z,24.10
2022-11-27T04:36:52.285Z,23.93
2022-11-27T04:39:20.306Z,23.33
2022-11-27T04:41:47.577Z,22.50
2022-11-27T04:44:23.413Z,24.23
2022-11-27T04:46:51.213Z,24.40
2022-11-27T04:49:19.695Z,23.97
2022-11-27T04:51:50.290Z,24.23
2022-11-27T04:54:18.179Z,23.57
2022-11-27T04:56:45.353Z,26.33
2022-11-27T04:59:12.713Z,22.47
2022-11-27T05:01:40.142Z,23.70
2022-11-27T05:04:07.455Z,24.30
2022-11-27T05:06:35.094Z,24.47
2022-11-27T05:09:02.693Z,25.97
2022-11-27T05:11:31.984Z,23.97
2022-11-27T05:14:18.530Z,24.43
2022-11-27T05:16:46.733Z,23.40
2022-11-27T05:19:15.190Z,27.63
2022-11-27T05:21:43.673Z,27.37
2022-11-27T05:24:12.383Z,24.80
2022-11-27T05:26:41.038Z,25.50
2022-11-27T05:29:10.173Z,24.73
2022-11-27T05:31:44.824Z,25.40
2022-11-27T05:34:12.360Z,24.03
2022-11-27T05:36:40.273Z,26.33
2022-11-27T05:39:13.706Z,24.50
2022-11-27T05:41:43.346Z,25.40
2022-11-27T05:44:15.130Z,25.63
2022-11-27T05:49:16.654Z,24.07
2022-11-27T05:51:51.275Z,23.27
2022-11-27T05:54:19.494Z,24.80
2022-11-27T05:56:47.204Z,25.33
2022-11-27T05:59:15.508Z,25.90
2022-11-27T06:01:45.703Z,23.43
2022-11-27T06:04:13.556Z,27.03
2022-11-27T06:06:41.018Z,26.83
2022-11-27T06:09:12.785Z,26.80
2022-11-27T06:11:42.895Z,28.70
2022-11-27T06:14:11.046Z,24.73
2022-11-27T06:16:38.808Z,32.83
2022-11-27T06:19:06.624Z,32.27
2022-11-27T06:21:33.920Z,31.40
2022-11-27T06:24:03.592Z,30.03
2022-11-27T06:26:32.944Z,30.80
2022-11-27T06:29:01.932Z,29.60
2022-11-27T06:31:32.606Z,29.77
2022-11-27T06:34:01.420Z,28.40
2022-11-27T06:36:34.001Z,28.40
2022-11-27T06:39:03.197Z,26.23
2022-11-27T06:41:32.187Z,29.00
2022-11-27T06:44:01.882Z,24.73
2022-11-27T06:46:30.678Z,28.10
2022-11-27T06:48:59.185Z,29.53
2022-11-27T06:51:35.672Z,29.03
2022-11-27T06:54:03.874Z,29.07
2022-11-27T06:56:33.496Z,30.07
2022-11-27T06:59:04.114Z,30.53
2022-11-27T07:01:32.958Z,29.23
2022-11-27T07:04:21.376Z,30.63
2022-11-27T07:06:48.951Z,32.27
2022-11-27T07:09:17.041Z,38.53
2022-11-27T07:11:44.551Z,40.47
2022-11-27T07:14:11.820Z,40.13
2022-11-27T07:16:46.419Z,42.20
2022-11-27T07:19:15.464Z,38.53
2022-11-27T07:21:43.642Z,37.30
2022-11-27T07:24:10.954Z,37.20
2022-11-27T07:26:39.445Z,48.23
2022-11-27T07:29:07.421Z,57.33
2022-11-27T07:31:36.384Z,36.77
2022-11-27T07:34:07.205Z,39.50
2022-11-27T07:36:43.554Z,32.87
2022-11-27T07:41:38.228Z,33.20
2022-11-27T07:44:06.073Z,31.90
2022-11-27T07:46:33.639Z,46.87
2022-11-27T07:49:01.833Z,29.20
2022-11-27T07:51:30.450Z,31.13
2022-11-27T07:53:59.481Z,28.93
2022-11-27T07:56:28.253Z,30.70
2022-11-27T07:58:57.631Z,31.57
2022-11-27T08:01:26.011Z,27.87
2022-11-27T08:03:54.007Z,29.60
2022-11-27T08:06:27.548Z,31.30
2022-11-27T08:08:56.894Z,45.80
2022-11-27T08:11:36.004Z,46.47
2022-11-27T08:14:06.347Z,33.73
2022-11-27T08:16:35.219Z,32.67
2022-11-27T08:19:03.553Z,33.33
2022-11-27T08:21:32.001Z,34.20
2022-11-27T08:23:59.725Z,37.33
2022-11-27T08:26:30.944Z,31.30
2022-11-27T08:28:58.883Z,28.70
2022-11-27T08:31:26.891Z,30.53
2022-11-27T08:33:54.992Z,30.67
2022-11-27T08:36:25.252Z,29.93
2022-11-27T08:38:52.982Z,30.77
2022-11-27T08:41:20.542Z,32.27
2022-11-27T08:43:48.007Z,33.10
2022-11-27T08:46:15.545Z,34.53
2022-11-27T08:48:44.703Z,31.40
2022-11-27T08:51:16.678Z,31.37
2022-11-27T08:53:45.998Z,33.70
2022-11-27T08:56:25.837Z,35.60
2022-11-27T08:58:53.953Z,28.73
2022-11-27T09:01:27.488Z,30.30
2022-11-27T09:03:55.899Z,31.90
2022-11-27T09:06:28.718Z,33.13
2022-11-27T09:09:02.323Z,33.20
2022-11-27T09:11:32.963Z,32.77
2022-11-27T09:14:09.318Z,31.73
2022-11-27T09:16:39.884Z,31.03
2022-11-27T09:19:09.089Z,30.27
2022-11-27T09:21:37.307Z,32.03
2022-11-27T09:24:05.749Z,33.70
2022-11-27T09:26:33.194Z,30.53
2022-11-27T09:29:04.115Z,30.93
2022-11-27T09:31:33.186Z,28.65
2022-11-27T09:34:01.087Z,30.80
2022-11-27T09:36:29.284Z,30.60
2022-11-27T09:39:14.742Z,31.43
2022-11-27T09:41:45.647Z,30.03
2022-11-27T09:44:43.542Z,32.85
2022-11-27T09:47:44.308Z,32.73
2022-11-27T09:50:27.228Z,34.77
2022-11-27T09:53:03.846Z,34.87
2022-11-27T09:55:36.034Z,31.57
2022-11-27T09:58:12.794Z,36.53
2022-11-27T10:00:41.194Z,74.93
2022-11-27T10:03:17.361Z,42.53
2022-11-27T10:06:03.415Z,46.43
2022-11-27T10:08:42.930Z,35.47
2022-11-27T10:11:40.883Z,35.80
2022-11-27T10:14:45.146Z,35.43
2022-11-27T10:17:24.036Z,43.53
2022-11-27T10:20:09.489Z,59.17
2022-11-27T10:23:02.851Z,41.80
2022-11-27T10:25:51.542Z,40.80
2022-11-27T10:28:38.383Z,38.57
2022-11-27T10:31:30.554Z,39.53
2022-11-27T10:34:03.391Z,41.40
2022-11-27T10:36:47.966Z,41.80
2022-11-27T10:39:42.924Z,45.17
2022-11-27T10:42:22.993Z,40.73
2022-11-27T10:45:03.354Z,38.67
2022-11-27T10:47:34.121Z,39.17
2022-11-27T10:50:03.569Z,43.33
2022-11-27T10:52:30.937Z,70.53
2022-11-27T10:55:05.401Z,48.63
2022-11-27T10:58:00.044Z,40.43
2022-11-27T11:00:35.201Z,40.63
2022-11-27T11:03:06.611Z,40.97
2022-11-27T11:05:51.003Z,44.58
2022-11-27T11:08:24.930Z,43.20
2022-11-27T11:10:59.679Z,43.70
2022-11-27T11:13:33.979Z,44.87
2022-11-27T11:16:20.565Z,46.37
2022-11-27T11:22:25.117Z,43.47
2022-11-27T11:25:56.463Z,44.80
2022-11-27T11:28:30.844Z,44.93
2022-11-27T11:31:18.592Z,44.63
2022-11-27T11:33:55.050Z,46.03
2022-11-27T11:36:23.285Z,41.87
2022-11-27T11:38:55.060Z,40.08
2022-11-27T11:41:24.407Z,40.80
2022-11-27T11:43:57.992Z,46.77
2022-11-27T11:46:31.301Z,38.70
2022-11-27T11:49:16.521Z,42.70
2022-11-27T11:52:01.593Z,41.33
2022-11-27T11:54:52.853Z,42.87
2022-11-27T11:57:28.428Z,44.65
2022-11-27T12:00:13.529Z,46.60
2022-11-27T12:03:15.122Z,47.20
2022-11-27T12:06:08.590Z,50.60
2022-11-27T12:08:48.214Z,47.33
2022-11-27T12:11:22.752Z,48.87
2022-11-27T12:13:56.936Z,47.40
2022-11-27T12:16:39.536Z,41.80
2022-11-27T12:19:37.894Z,40.20
2022-11-27T12:22:52.016Z,38.90
2022-11-27T12:25:27.824Z,37.13
2022-11-27T12:28:34.376Z,47.20
2022-11-27T12:31:11.539Z,49.87
2022-11-27T12:34:08.700Z,41.67
2022-11-27T12:37:15.017Z,37.83
2022-11-27T12:40:00.295Z,40.63
2022-11-27T12:42:46.095Z,40.10
2022-11-27T12:45:39.399Z,37.97
2022-11-27T12:48:27.191Z,40.47
2022-11-27T12:58:19.612Z,41.67
2022-11-27T13:04:37.126Z,42.67
2022-11-27T13:07:11.637Z,39.17
2022-11-27T13:09:52.868Z,41.67
2022-11-27T13:12:53.276Z,39.35
2022-11-27T13:15:39.978Z,38.53
2022-11-27T13:18:19.972Z,36.30
2022-11-27T13:20:52.307Z,39.20
2022-11-27T13:23:21.709Z,41.67
2022-11-27T13:25:55.089Z,73.53
2022-11-27T13:28:43.753Z,55.10
2022-11-27T13:31:22.466Z,47.23
2022-11-27T13:33:51.163Z,43.83
2022-11-27T13:36:25.629Z,44.73
2022-11-27T13:39:01.075Z,45.90
2022-11-27T13:41:40.691Z,50.77
2022-11-27T13:44:29.723Z,84.80
2022-11-27T13:47:11.426Z,43.80
2022-11-27T13:49:39.914Z,44.80
2022-11-27T13:52:19.486Z,61.33
2022-11-27T13:55:06.202Z,66.90
2022-11-27T13:57:37.501Z,56.83
2022-11-27T14:00:10.206Z,51.40
2022-11-27T14:02:44.989Z,48.13
2022-11-27T14:05:14.372Z,43.73
2022-11-27T14:19:04.372Z,40.93
2022-11-27T14:21:41.973Z,38.87
2022-11-27T14:24:29.157Z,39.20
2022-11-27T14:30:51.917Z,41.43
2022-11-27T14:33:25.401Z,38.47
2022-11-27T14:36:07.019Z,38.50
2022-11-27T14:38:38.564Z,39.55
2022-11-27T14:41:20.625Z,39.58
2022-11-27T14:43:48.062Z,53.10
2022-11-27T14:46:23.249Z,84.33
2022-11-27T14:48:56.465Z,91.37
2022-11-27T14:51:38.308Z,84.23
2022-11-27T14:56:43.656Z,76.00
2022-11-27T14:59:26.531Z,69.43
2022-11-27T15:02:12.985Z,86.37
2022-11-27T15:04:44.603Z,80.57
2022-11-27T15:07:23.475Z,69.68
2022-11-27T15:09:53.367Z,64.77
2022-11-27T15:16:06.585Z,56.07
2022-11-27T15:22:19.144Z,53.23
2022-11-27T15:24:46.407Z,50.17
2022-11-27T15:27:13.800Z,51.73
2022-11-27T15:30:00.531Z,46.50
2022-11-27T15:32:34.946Z,47.60
2022-11-27T15:38:33.781Z,43.93
2022-11-27T15:41:02.741Z,46.37
2022-11-27T15:43:30.236Z,44.77
2022-11-27T15:45:57.938Z,49.20
2022-11-27T15:48:25.720Z,50.17
2022-11-27T15:50:52.950Z,46.60
2022-11-27T15:53:20.224Z,45.47
2022-11-27T15:55:47.541Z,46.80
2022-11-27T15:58:15.900Z,49.83
2022-11-27T16:00:43.211Z,53.60
2022-11-27T16:03:14.808Z,55.43
2022-11-27T16:05:42.368Z,56.88
2022-11-27T16:08:12.729Z,60.70
2022-11-27T16:10:41.400Z,74.27
2022-11-27T16:13:08.724Z,65.47
2022-11-27T16:15:36.021Z,63.07
2022-11-27T16:18:03.240Z,63.57
2022-11-27T16:20:30.458Z,59.73
2022-11-27T16:22:57.778Z,59.33
2022-11-27T16:28:52.934Z,68.80
2022-11-27T16:31:20.361Z,72.67
2022-11-27T16:33:48.139Z,62.83
2022-11-27T16:36:18.400Z,64.60
2022-11-27T16:38:46.397Z,69.37
2022-11-27T16:41:16.299Z,66.00
2022-11-27T16:43:45.874Z,68.57
2022-11-27T16:46:16.105Z,66.60
2022-11-27T16:48:45.115Z,64.80
2022-11-27T16:51:15.583Z,67.83
2022-11-27T16:53:46.097Z,70.97
2022-11-27T16:56:16.269Z,71.67
2022-11-27T16:58:45.389Z,64.90
2022-11-27T17:01:18.832Z,65.77
2022-11-27T17:03:46.146Z,69.03
2022-11-27T17:06:15.689Z,66.97
2022-11-27T17:08:53.323Z,65.20
2022-11-27T17:11:25.219Z,67.60
2022-11-27T17:17:01.832Z,69.13
2022-11-27T17:19:30.398Z,69.20
2022-11-27T17:21:59.168Z,69.77
2022-11-27T17:24:26.504Z,73.07
2022-11-27T17:26:57.057Z,136.80
2022-11-27T17:29:24.325Z,85.50
2022-11-27T17:31:51.759Z,77.73
2022-11-27T17:34:20.036Z,80.87
2022-11-27T17:36:51.370Z,80.60
2022-11-27T17:39:18.687Z,73.38
2022-11-27T17:41:46.378Z,75.30
2022-11-27T17:44:17.252Z,71.40
2022-11-27T17:46:51.765Z,75.90
2022-11-27T17:49:19.835Z,72.87
2022-11-27T17:51:47.106Z,68.93
2022-11-27T17:54:14.488Z,79.47
2022-11-27T17:56:42.471Z,87.43
2022-11-27T17:59:09.710Z,86.53
2022-11-27T18:01:37.184Z,97.70
2022-11-27T18:04:05.857Z,89.07
2022-11-27T18:06:33.901Z,132.87
2022-11-27T18:09:01.063Z,58.23
2022-11-27T18:11:31.567Z,71.37
2022-11-27T18:14:04.784Z,82.10
2022-11-27T18:16:35.843Z,73.20
2022-11-27T18:19:14.993Z,90.30
2022-11-27T18:21:42.591Z,88.10
2022-11-27T18:24:25.809Z,135.37
2022-11-27T18:27:11.571Z,55.93
2022-11-27T18:29:41.539Z,54.03
2022-11-27T18:32:09.383Z,54.43
2022-11-27T18:34:36.647Z,50.60
2022-11-27T18:37:05.450Z,53.97
2022-11-27T18:43:05.291Z,53.17
2022-11-27T18:48:20.357Z,50.40
2022-11-27T18:50:47.553Z,54.00
2022-11-27T18:53:15.854Z,52.17
2022-11-27T18:55:45.307Z,49.90
2022-11-27T18:58:16.053Z,50.00
2022-11-27T19:00:47.797Z,54.13
2022-11-27T19:05:43.042Z,54.10
2022-11-27T19:08:10.752Z,57.23
2022-11-27T19:10:39.219Z,59.83
2022-11-27T19:13:06.336Z,59.97
2022-11-27T19:15:33.873Z,60.97
2022-11-27T19:18:01.418Z,63.23
2022-11-27T19:35:47.545Z,65.50
2022-11-27T19:38:14.608Z,63.40
2022-11-27T19:40:41.921Z,57.03
2022-11-27T19:43:18.005Z,57.50
2022-11-27T19:45:45.472Z,58.37
2022-11-27T19:48:12.801Z,55.33
2022-11-27T19:50:40.184Z,55.90
2022-11-27T19:53:07.884Z,56.17
2022-11-27T19:55:35.040Z,61.43
2022-11-27T19:58:01.905Z,56.67
2022-11-27T20:00:28.778Z,58.07
2022-11-27T20:02:55.607Z,56.80
2022-11-27T20:05:25.019Z,59.70
2022-11-27T20:07:59.584Z,51.90
2022-11-27T20:10:26.638Z,54.83
2022-11-27T20:12:53.543Z,52.87
2022-11-27T20:15:20.610Z,53.40
2022-11-27T20:17:47.391Z,54.60
2022-11-27T20:20:14.595Z,55.00
2022-11-27T20:22:41.837Z,52.13
2022-11-27T20:25:19.414Z,53.93
2022-11-27T20:27:47.187Z,53.13
2022-11-27T20:30:14.303Z,47.17
2022-11-27T20:32:42.583Z,50.37
2022-11-27T20:35:09.481Z,42.43
2022-11-27T20:37:36.827Z,44.53
2022-11-27T20:40:04.004Z,44.17
2022-11-27T20:42:30.932Z,46.53
2022-11-27T20:44:57.892Z,46.43
2022-11-27T20:47:24.643Z,47.17
2022-11-27T20:49:51.269Z,46.73
2022-11-27T20:52:18.223Z,42.83
2022-11-27T20:54:44.965Z,43.07
2022-11-27T21:06:57.055Z,39.53
2022-11-27T21:09:24.505Z,42.90
2022-11-27T21:11:51.232Z,45.73
2022-11-27T21:14:18.846Z,41.07
2022-11-27T21:19:55.264Z,41.87
2022-11-27T21:22:22.047Z,44.27
2022-11-27T21:24:56.878Z,42.53
2022-11-27T21:27:23.680Z,40.93
2022-11-27T21:29:50.471Z,39.47
2022-11-27T21:32:22.837Z,38.33
2022-11-27T21:34:49.581Z,170.90
2022-11-27T21:37:16.184Z,54.47
2022-11-27T21:39:44.880Z,42.77
2022-11-27T21:42:11.487Z,43.37
2022-11-27T21:44:41.565Z,44.90
2022-11-27T21:47:12.337Z,134.40
2022-11-27T21:49:39.616Z,103.10
2022-11-27T21:52:06.671Z,45.27
2022-11-27T21:54:34.117Z,40.10
2022-11-27T21:57:00.893Z,37.73
2022-11-27T21:59:27.687Z,86.00
2022-11-27T22:01:57.294Z,61.63
2022-11-27T22:04:24.748Z,40.43
2022-11-27T22:06:51.635Z,39.43
2022-11-27T22:09:18.352Z,39.93
2022-11-27T22:11:45.461Z,41.47
2022-11-27T22:14:12.673Z,38.10
2022-11-27T22:16:45.128Z,39.97
2022-11-27T22:19:14.789Z,36.77
2022-11-27T22:21:41.550Z,35.27
2022-11-27T22:24:12.150Z,34.87
2022-11-27T22:26:43.336Z,33.20
2022-11-27T22:29:09.950Z,37.60
2022-11-27T22:31:36.684Z,40.13
2022-11-27T22:34:03.296Z,38.13
2022-11-27T22:36:31.430Z,37.57
2022-11-27T22:38:58.744Z,37.07
2022-11-27T22:41:26.519Z,36.17
2022-11-27T22:43:53.238Z,37.27
2022-11-27T22:46:21.996Z,37.63
2022-11-27T22:48:54.229Z,37.83
2022-11-27T22:51:21.278Z,35.70
2022-11-27T22:53:48.012Z,36.73
2022-11-27T22:56:14.724Z,35.50
2022-11-27T22:58:42.118Z,35.20
2022-11-27T23:01:14.397Z,35.77
2022-11-27T23:03:41.188Z,34.40
2022-11-27T23:06:12.083Z,35.90
2022-11-27T23:08:41.617Z,33.27
2022-11-27T23:11:08.800Z,32.93
2022-11-27T23:13:35.858Z,32.63
2022-11-27T23:16:04.132Z,31.73
2022-11-27T23:18:31.043Z,31.47
2022-11-27T23:20:57.796Z,30.83
2022-11-27T23:23:24.864Z,26.30
2022-11-27T23:25:51.713Z,33.17
2022-11-27T23:28:18.776Z,27.80
2022-11-27T23:30:45.612Z,31.67
2022-11-27T23:33:12.269Z,29.30
2022-11-27T23:35:39.131Z,27.77
2022-11-27T23:38:05.941Z,28.57
2022-11-27T23:40:32.798Z,24.73
2022-11-27T23:42:59.706Z,26.03
2022-11-27T23:45:26.543Z,27.23
2022-11-27T23:47:53.329Z,25.73
2022-11-27T23:50:20.670Z,26.47
2022-11-27T23:52:47.516Z,28.10
2022-11-27T23:55:14.362Z,26.07
2022-11-27T23:57:41.141Z,26.50
